Tiempo atmosférico en la estación meteorológica de Caravaca de La Cruz, Murcia (643 m.)



Fecha
DESCASC
Temp. máxima en grados centígrados (hora)
DESCASC
Temp. mínima en grados centígrados (hora)
DESCASC
Temp. media en grados centígrados
DESCASC
Racha de viento máxima en m/sg (hora)
DESCASC
Velocidad máxima media en intervalos de 10 minutos(hora)
DESCASC
Precipitaciones diarias en mm
DESCASC
Precipitaciones de 00:00 a 06:00 en mm
DESCASC
Precipitaciones de 06:00 a 12:00 en mm
DESCASC
Precipitaciones de 12:00 a 18:00 en mm
DESCASC
Precipitaciones de 18:00 a 24:00 en mm
DESCASC
20-05-2018 24.4 (16:10) 7.9 (07:10) 16.1 9.17 (18:50) 5.56 (18:50) 0 0 0 0 0
19-05-2018 24.1 (14:50) 8 (07:00) 16.1 8.89 (15:30) 4.72 (13:10) 0 0 0 0 0
18-05-2018 24.2 (14:30) 7 (00:00) 15.6 8.06 (15:20) 4.17 (15:20) 0 0 0 0 0
17-05-2018 22.2 (14:00) 6.7 (00:00) 14.5 11.39 (14:50) 5.56 (13:10) 0 0 0 0 0
16-05-2018 22.7 (15:10) 7.2 (00:00) 15 8.33 (16:30) 4.17 (18:00) 0 0 0 0 0
15-05-2018 23.6 (15:30) 6.8 (00:00) 15.2 7.78 (17:50) 4.72 (17:50) 0 0 0 0 0
14-05-2018 22.6 (13:40) 7 (00:00) 14.8 7.5 (14:00) 4.17 (13:30) 0 0 0 0 0
13-05-2018 22.3 (15:20) 9.4 (00:00) 15.8 11.67 (15:50) 4.72 (09:00) 0 0 0 0 0
12-05-2018 26.8 (15:20) 11.6 (00:00) 19.2 11.67 (20:50) 6.11 (22:00) 0 0 0 0 0
11-05-2018 23.7 (17:30) 9.8 (05:20) 16.8 5.83 (03:00) 3.33 (03:00) 0.2 0.2 0 0 0
10-05-2018 25.2 (14:10) 13.6 (00:00) 19.4 10 (14:30) 4.44 (14:30) 2.4 0 0 2.4 0
09-05-2018 26.4 (13:50) 11.2 (00:00) 18.8 9.17 (16:00) 4.44 (16:00) 2.2 0 0 2.2 0
08-05-2018 26.6 (15:00) 9.2 (00:00) 17.9 11.94 (17:30) 5.56 (17:40) 4.4 0 0 2.8 1.6
07-05-2018 23.9 (15:50) 8.3 (00:00) 16.1 7.22 (15:50) 3.61 (22:00) 0 0 0 0 0
06-05-2018 23.4 (15:40) 9.6 (00:00) 16.5 8.61 (17:50) 4.72 (18:10) 0 0 0 0 0
05-05-2018 24.9 (14:20) 11.5 (00:00) 18.2 8.33 (15:40) 4.44 (15:40) 5.6 0 0 0 5.6
04-05-2018 23.8 (15:40) 7.4 (00:00) 15.6 6.94 (15:30) 3.89 (11:10) 0 0 0 0 0
03-05-2018 22.6 (15:30) 9.5 (00:00) 16.1 9.72 (11:40) 4.44 (11:10) 0 0 0 0 0
02-05-2018 20.3 (14:40) 4 (00:00) 12.1 9.17 (18:00) 4.17 (02:10) 0 0 0 0 0
01-05-2018 16.5 (13:50) 3.2 (05:40) 9.9 11.67 (17:00) 3.89 (17:00) 6.8 0 0 6.8 0
30-04-2018 19.1 (12:50) 4.4 (00:00) 11.8 9.17 (15:40) 4.44 (15:50) 0.2 0 0 0 0.2
29-04-2018 18.2 (16:30) 8.4 (00:00) 13.3 17.22 (13:40) 10 (11:00) 0 0 0 0 0
28-04-2018 27.1 (15:40) 8.8 (00:00) 18 10.83 (14:20) 5.83 (13:40) 0 0 0 0 0
27-04-2018 27.3 (12:50) 11.7 (00:00) 19.5 13.61 (13:50) 4.44 (07:50) 4 0 0 3 1
26-04-2018 23.8 (16:00) 12.2 (00:00) 18 7.78 (09:20) 4.17 (13:00) 0.4 0 0.4 0 0
25-04-2018 21.3 (16:00) 11.6 (00:00) 16.4 7.22 (11:50) 4.17 (10:30) 0 0 0 0 0
24-04-2018 26.5 (15:10) 12.7 (00:00) 19.6 10.28 (14:30) 5.56 (14:40) 0 0 0 0 0
23-04-2018 25.2 (17:10) 9.6 (00:00) 17.4 9.17 (14:50) 5.56 (19:00) 0.2 0.2 0 0 0
22-04-2018 24 (16:10) 9.5 (00:00) 16.8 9.72 (15:50) 4.72 (15:50) 0 0 0 0 0

Gráficas

Temp. máximas Temp. mínimas Temp. medias Precipitaciones Rachas de viento máximas Velocidades máximas media en intervalos de 10 minutos

Datos horarios

Fecha y hora oficial Temperatura (ºC) Velocidad del viento (km/h) Dirección del viento Racha (km/h) Dirección de racha Precipitación (mm) Presión (hPa) Tendencia (hPa) Humedad (%)
2018-05-21 23:00:00 16.3 5 Norte 18 Nordeste 0 939.7 1.9 56
2018-05-21 22:00:00 16.6 9 Oeste 20 Sudoeste 0 939 1.5 57
2018-05-21 21:00:00 18.4 12 Sudoeste 25 Sudoeste 0 938.4 0.6 46
2018-05-21 20:00:00 20.1 10 Sudoeste 32 Sudoeste 0 937.8 0.5 40
2018-05-21 19:00:00 20.1 16 Sudoeste 41 Sudoeste 0 937.5 0.2 39
2018-05-21 18:00:00 18.9 24 Sudoeste 41 Sudoeste 0 937.8 0.5 51
2018-05-21 17:00:00 22 19 Sudoeste 32 Sur 0 937.3 -0.5 38
2018-05-21 16:00:00 23.2 16 Sur 32 Sudoeste 0 937.3 -0.9 31
2018-05-21 15:00:00 24.2 12 Este 23 Este 0 937.3 -1.4 25
2018-05-21 14:00:00 25.9 7 Sur 26 Nordeste 0 937.8 -1.3 24
2018-05-21 13:00:00 24.1 6 Este 19 Sudeste 0 938.2 -1.1 27
2018-05-21 12:00:00 22 5 Nordeste 14 Este 0 938.7 -0.4 36
2018-05-21 11:00:00 20.7 5 Nordeste 12 Este 0 939.1 -0.1 43
2018-05-21 10:00:00 18.1 4 Este 10 Sudeste 0 939.3 0.3 55
2018-05-21 09:00:00 15.3 7 Sudoeste 13 Sudoeste 0 939.1 0.1 64
2018-05-21 08:00:00 11.3 6 Oeste 12 Oeste 0 939.2 0.5 78
2018-05-21 07:00:00 8.1 5 Oeste 12 Oeste 0 939 0 87
2018-05-21 06:00:00 10 8 Oeste 16 Oeste 0 939 -0.3 78
2018-05-21 05:00:00 9.6 4 Oeste 14 Oeste 0 938.7 -0.9 81
2018-05-21 04:00:00 10.4 5 Oeste 14 Oeste 0 939 -0.9 79
2018-05-21 03:00:00 12.3 9 Oeste 14 Oeste 0 939.3 -0.9 72
2018-05-21 02:00:00 12.2 0 Calma 9 Sudoeste 0 939.6 -0.7 75
2018-05-21 01:00:00 14.1 5 Sudoeste 13 Oeste 0 939.9 0.1 69
2018-05-21 00:00:00 14.3 7 Oeste 12 Oeste 0 940.2 0.8 69
2018-05-20 23:00:00 14.4 4 Oeste 10 Sudoeste 0 940.3 1.9 68
2018-05-20 22:00:00 16.5 6 Sudoeste 21 Sudoeste 0 939.8 1.7 60
2018-05-20 21:00:00 18.1 9 Sudoeste 18 Sur 0 939.4 1.4 51
2018-05-20 20:00:00 19.7 10 Este 22 Este 0 938.4 0 44
2018-05-20 19:00:00 20.4 14 Este 33 Este 0 938.1 -0.9 41
2018-05-20 18:00:00 22.4 14 Sudeste 30 Este 0 938 -1.7 33
2018-05-20 17:00:00 23.1 14 Este 29 Nordeste 0 938.4 -2 28
2018-05-20 16:00:00 24.3 12 Este 29 Este 0 939 -2 28
2018-05-20 15:00:00 22.6 10 Este 27 Este 0 939.7 -1.6 30
2018-05-20 14:00:00 21.3 8 Nordeste 23 Este 0 940.4 -1 35
2018-05-20 13:00:00 22.1 9 Sudeste 21 Sudeste 0 941 -0.6 37
2018-05-20 12:00:00 21 12 Este 20 Sudeste 0 941.3 -0.2 39
2018-05-20 11:00:00 19.9 10 Este 20 Este 0 941.4 0 46
2018-05-20 10:00:00 17.9 7 Este 14 Nordeste 0 941.6 0.3 58
2018-05-20 09:00:00 15.1 4 Sudoeste 8 Sudoeste 0 941.5 0.3 68
2018-05-20 08:00:00 10.8 5 Sudoeste 16 Oeste 0 941.4 0.1 83
2018-05-20 07:00:00 8.2 4 Oeste 9 Oeste 0 941.3 -0.3 91
2018-05-20 06:00:00 8.2 5 Oeste 7 Oeste 0 941.2 -0.8 90
2018-05-20 05:00:00 8.5 2 Noroeste 6 Noroeste 0 941.3 -1.1 90
2018-05-20 04:00:00 9 3 Oeste 6 Oeste 0 941.6 -1.1 88
2018-05-20 03:00:00 9.7 3 Oeste 8 Oeste 0 942 -0.5 86
2018-05-20 02:00:00 10.7 4 Oeste 7 Oeste 0 942.4 0.3 83
2018-05-20 01:00:00 12.3 3 Oeste 10 Oeste 0 942.7 1 77
2018-05-20 00:00:00 13.1 4 Noroeste 9 Norte 0 942.5 1.3 76
2018-05-19 23:00:00 14.3 4 Norte 8 Norte 0 942.1 1.7 72
2018-05-19 22:00:00 16.2 4 Norte 14 Sur 0 941.7 1.6 63
2018-05-19 21:00:00 18.9 4 Sudeste 21 Este 0 941.2 0.9 52
2018-05-19 20:00:00 20.8 13 Este 25 Este 0 940.4 -0.3 41
2018-05-19 19:00:00 22.3 11 Sudeste 24 Este 0 940.1 -1.1 31
2018-05-19 18:00:00 23.6 12 Este 23 Este 0 940.3 -1.6 28
2018-05-19 17:00:00 22.7 12 Este 22 Este 0 940.7 -1.8 29
2018-05-19 16:00:00 23.2 9 Nordeste 32 Sudeste 0 941.2 -1.8 26
2018-05-19 15:00:00 22.7 12 Nordeste 32 Este 0 941.9 -1.4 29
2018-05-19 14:00:00 22.7 15 Este 30 Este 0 942.5 -0.8 26
2018-05-19 13:00:00 22.4 12 Este 27 Este 0 943 -0.2 31
2018-05-19 12:00:00 19.4 9 Norte 27 Este 0 943.3 0.4 39
2018-05-19 11:00:00 18.9 13 Nordeste 26 Este 0 943.3 0.7 42
2018-05-19 10:00:00 18 10 Este 17 Sudeste 0 943.2 0.9 54
2018-05-19 09:00:00 15.6 3 Este 8 Sudoeste 0 942.9 0.8 63
2018-05-19 08:00:00 10.1 3 Sudoeste 10 Oeste 0 942.6 0.4 84
2018-05-19 07:00:00 8 2 Sudoeste 9 Oeste 0 942.3 0 88
2018-05-19 06:00:00 8.9 4 Sudoeste 8 Sudoeste 0 942.1 -0.9 87
2018-05-19 05:00:00 10 4 Oeste 13 Oeste 0 942.2 -1.1 82
2018-05-19 04:00:00 11.1 6 Oeste 9 Oeste 0 942.3 -1 79
2018-05-19 03:00:00 11.6 2 Oeste 5 Noroeste 0 943 -0.2 77
2018-05-19 02:00:00 13.1 3 Oeste 6 Sudoeste 0 943.3 0.4 71
2018-05-19 01:00:00 13.6 0 Calma 11 Noroeste 0 943.3 0.9 70
2018-05-19 00:00:00 13.3 5 Noroeste 8 Norte 0 943.2 1.4 69
2018-05-18 23:00:00 14.2 4 Norte 10 Nordeste 0 942.9 1.8 67
2018-05-18 22:00:00 16.1 3 Nordeste 13 Sudeste 0 942.4 1.4 60
2018-05-18 21:00:00 18.2 8 Sudeste 21 Este 0 941.8 0.8 50
2018-05-18 20:00:00 20 14 Este 27 Este 0 941.1 0.2 42
2018-05-18 19:00:00 22.3 9 Sur 26 Sur 0 941 -0.3 36
2018-05-18 18:00:00 22.2 9 Sur 26 Este 0 941 -0.8 35
2018-05-18 17:00:00 22.6 9 Este 25 Este 0 940.9 -1.6 33
2018-05-18 16:00:00 23.5 14 Este 29 Este 0 941.3 -1.6 29
2018-05-18 15:00:00 23.3 12 Nordeste 28 Este 0 941.8 -1.2 27
2018-05-18 14:00:00 21.9 12 Nordeste 28 Este 0 942.5 -0.5 34
2018-05-18 13:00:00 22.3 13 Este 24 Este 0 942.9 0.1 36
2018-05-18 12:00:00 20.7 11 Nordeste 23 Este 0 943 0.1 39
2018-05-18 11:00:00 20 6 Este 13 Nordeste 0 943 0.5 41
2018-05-18 10:00:00 17.3 4 Este 8 Este 0 942.8 0.6 52
2018-05-18 09:00:00 13.7 5 Sudoeste 12 Oeste 0 942.9 0.8 62
2018-05-18 08:00:00 10 7 Sudoeste 13 Sudoeste 0 942.5 0.4 75
2018-05-18 07:00:00 8.9 2 Norte 19 Oeste 0 942.2 0.4 79
2018-05-18 06:00:00 8.4 9 Oeste 14 Oeste 0 942.1 -0.1 84
2018-05-18 05:00:00 7.8 3 Noroeste 16 Oeste 0 942.1 -0.4 84
2018-05-18 04:00:00 10 14 Oeste 19 Sudoeste 0 941.8 -1.1 75
2018-05-18 03:00:00 9.8 9 Oeste 15 Oeste 0 942.2 -0.8 78
2018-05-18 02:00:00 9.4 2 Noroeste 9 Oeste 0 942.5 -0.5 79
2018-05-18 01:00:00 10.8 2 Sur 8 Oeste 0 942.9 0.6 74
2018-05-18 00:00:00 12.9 6 Sudoeste 12 Oeste 0 943 1.2 67
2018-05-17 23:00:00 13.4 6 Oeste 11 Sudoeste 0 943 1.8 64
2018-05-17 22:00:00 14.3 4 Norte 13 Sudeste 0 942.3 1.3 61
2018-05-17 21:00:00 17 9 Este 23 Este 0 941.8 0.8 51
2018-05-17 20:00:00 18.4 12 Este 25 Nordeste 0 941.2 0 46
2018-05-17 19:00:00 19.7 14 Este 29 Este 0 941 -0.5 41
2018-05-17 18:00:00 20.6 14 Este 29 Este 0 941 -0.7 37
2018-05-17 17:00:00 21 15 Este 35 Este 0 941.2 -0.8 35
2018-05-17 16:00:00 21.7 16 Este 36 Este 0 941.5 -0.7 32
2018-05-17 15:00:00 20.4 15 Este 41 Este 0 941.7 -0.4 36
2018-05-17 14:00:00 21.1 18 Este 36 Este 0 942 0.2 34
2018-05-17 13:00:00 20.6 18 Este 32 Sudeste 0 942.2 0.5 33
2018-05-17 12:00:00 19.7 13 Nordeste 30 Este 0 942.1 0.3 37
2018-05-17 11:00:00 18.6 10 Nordeste 24 Nordeste 0 941.8 0.2 40
2018-05-17 10:00:00 17 8 Nordeste 18 Nordeste 0 941.7 0.3 44
2018-05-17 09:00:00 14.5 3 Sudeste 13 Oeste 0 941.8 0.3 53
2018-05-17 08:00:00 8.8 4 Sudoeste 8 Sudoeste 0 941.6 0 77
2018-05-17 07:00:00 6.9 2 Sudoeste 10 Oeste 0 941.4 -0.2 81
2018-05-17 06:00:00 8.7 6 Oeste 12 Sudoeste 0 941.5 -1.1 70
2018-05-17 05:00:00 10.2 12 Oeste 18 Sudoeste 0 941.6 -1 63
2018-05-17 04:00:00 9.9 6 Oeste 11 Noroeste 0 941.6 -1.3 65
2018-05-17 03:00:00 9.7 4 Sudoeste 12 Noroeste 0 942.6 -0.1 64
2018-05-17 02:00:00 11 6 Noroeste 14 Noroeste 0 942.6 0.2 57
2018-05-17 01:00:00 10.7 6 Noroeste 13 Noroeste 0 942.9 1.1 54
2018-05-17 00:00:00 11.1 4 Noroeste 9 Noroeste 0 942.7 1.3 55
2018-05-16 23:00:00 12.2 5 Noroeste 10 Norte 0 942.4 1.6 50
2018-05-16 22:00:00 14.1 4 Norte 16 Este 0 941.8 1.2 43
2018-05-16 21:00:00 16.7 12 Este 23 Sudeste 0 941.4 0.7 32
2018-05-16 20:00:00 18.9 11 Este 26 Este 0 940.8 0.1 30
2018-05-16 19:00:00 20.4 13 Este 30 Este 0 940.6 -0.7 29
2018-05-16 18:00:00 21.3 15 Este 29 Este 0 940.7 -1.2 27
2018-05-16 17:00:00 22 15 Este 30 Este 0 940.7 -1.6 26
2018-05-16 16:00:00 21.7 15 Este 28 Este 0 941.3 -1.3 25
2018-05-16 15:00:00 22.6 11 Este 26 Este 0 941.9 -0.7 24
2018-05-16 14:00:00 21.9 12 Este 27 Este 0 942.3 -0.1 28
2018-05-16 13:00:00 21.3 12 Este 24 Este 0 942.6 0.1 37
2018-05-16 12:00:00 20.1 9 Este 23 Este 0 942.6 0.3 43
2018-05-16 11:00:00 19.2 10 Nordeste 20 Nordeste 0 942.4 0.3 49
2018-05-16 10:00:00 17.4 8 Este 14 Este 0 942.5 0.7 57
2018-05-16 09:00:00 14.6 3 Sur 8 Sur 0 942.3 0.4 65
2018-05-16 08:00:00 8.7 0 Calma 7 Sudoeste 0 942.1 0.1 87
2018-05-16 07:00:00 7.3 4 Oeste 16 Sudoeste 0 941.8 -0.3 87
2018-05-16 06:00:00 8.6 10 Oeste 16 Oeste 0 941.9 -0.4 80
2018-05-16 05:00:00 7.9 6 Oeste 11 Oeste 0 942 -0.8 88
2018-05-16 04:00:00 8.1 4 Oeste 8 Oeste 0 942.1 -0.9 85
2018-05-16 03:00:00 8.8 4 Oeste 5 Oeste 0 942.3 -0.8 82
2018-05-16 02:00:00 10 2 Noroeste 8 Sudoeste 0 942.8 0 78
2018-05-16 01:00:00 12.5 5 Sudoeste 12 Sudoeste 0 943 0.8 68
2018-05-16 00:00:00 13.9 8 Oeste 16 Oeste 0 943.1 1.5 63
2018-05-15 23:00:00 13.4 5 Noroeste 10 Oeste 0 942.8 1.9 64
2018-05-15 22:00:00 15.2 7 Oeste 13 Oeste 0 942.2 1.5 57
2018-05-15 21:00:00 17.3 4 Sudoeste 18 Este 0 941.6 0.8 47
2018-05-15 20:00:00 19.3 10 Este 20 Este 0 940.9 -0.1 44
2018-05-15 19:00:00 20.6 11 Este 27 Este 0 940.7 -0.6 39
2018-05-15 18:00:00 21.9 13 Este 28 Este 0 940.8 -1.1 35
2018-05-15 17:00:00 22.2 11 Este 26 Este 0 941 -1.4 32
2018-05-15 16:00:00 23 12 Este 26 Sudeste 0 941.3 -1.7 29
2018-05-15 15:00:00 22.8 10 Este 25 Este 0 941.9 -1.5 28
2018-05-15 14:00:00 22.3 6 Este 22 Este 0 942.4 -1.3 29
2018-05-15 13:00:00 21.5 7 Este 18 Este 0 943 -1 31
2018-05-15 12:00:00 19.9 7 Sudeste 18 Este 0 943.4 -0.7 32
2018-05-15 11:00:00 18.1 7 Sudeste 13 Este 0 943.7 -0.5 37
2018-05-15 10:00:00 16.6 5 Sudeste 11 Este 0 944 0.4 40
2018-05-15 09:00:00 14.3 3 Sudeste 7 Sur 0 944.1 0.9 46
2018-05-15 08:00:00 8.7 0 Calma 9 Oeste 0 944.2 1.1 72
2018-05-15 07:00:00 7 3 Noroeste 10 Sudoeste 0 943.6 0.7 74
2018-05-15 06:00:00 7.9 6 Oeste 13 Sudoeste 0 943.2 0.2 66
2018-05-15 05:00:00 9.7 3 Sudoeste 12 Nordeste 0 943.1 -0.2 57
2018-05-15 04:00:00 9.7 0 Calma 9 Norte 0 942.9 -0.5 58
2018-05-15 03:00:00 9.9 4 Oeste 10 Sudoeste 0 943 -0.6 63
2018-05-15 02:00:00 13.1 9 Sudoeste 14 Sudoeste 0 943.3 0 47
2018-05-15 01:00:00 10.9 3 Sudoeste 9 Sur 0 943.4 0.9 61
2018-05-15 00:00:00 12.3 5 Noroeste 9 Noroeste 0 943.6 1.7 54
2018-05-14 23:00:00 14 4 Noroeste 13 Noroeste 0 943.3 1.8 51
2018-05-14 22:00:00 17.6 5 Noroeste 21 Norte 0 942.5 1.1 33
2018-05-14 21:00:00 18.7 7 Norte 19 Noroeste 0 941.9 0.4 31
2018-05-14 20:00:00 19.3 6 Norte 21 Norte 0 941.5 -0.1 30
2018-05-14 19:00:00 19.6 7 Norte 26 Nordeste 0 941.4 -0.4 32
2018-05-14 18:00:00 19.6 8 Norte 26 Nordeste 0 941.5 -0.8 31
2018-05-14 17:00:00 20.4 9 Nordeste 19 Nordeste 0 941.6 -1.2 29
2018-05-14 16:00:00 21.3 8 Nordeste 22 Nordeste 0 941.8 -1.5 27
2018-05-14 15:00:00 22 6 Sudeste 22 Este 0 942.3 -1.3 26
2018-05-14 14:00:00 22.1 12 Sudeste 27 Sudeste 0 942.8 -1.1 25
2018-05-14 13:00:00 21.3 12 Sudeste 26 Este 0 943.3 -1.2 27
2018-05-14 12:00:00 18.8 13 Este 23 Este 0 943.6 -1.1 31
2018-05-14 11:00:00 18.9 8 Este 16 Nordeste 0 943.9 -0.9 26
2018-05-14 10:00:00 16.9 8 Sudeste 13 Sudeste 0 944.5 0 28
2018-05-14 09:00:00 13.6 7 Sudoeste 14 Sudoeste 0 944.7 0.3 37
2018-05-14 08:00:00 9 5 Sudoeste 17 Oeste 0 944.8 0.4 50
2018-05-14 07:00:00 7.7 11 Sudoeste 16 Sudoeste 0 944.5 0 51
2018-05-14 06:00:00 8.3 5 Sur 14 Sudoeste 0 944.4 -0.4 48
2018-05-14 05:00:00 8.8 5 Sudoeste 11 Sudoeste 0 944.4 -0.8 45
2018-05-14 04:00:00 9.5 3 Noroeste 14 Noroeste 0 944.5 -0.9 42
2018-05-14 03:00:00 10.6 4 Oeste 13 Noroeste 0 944.8 -0.7 36
2018-05-14 02:00:00 11.6 5 Noroeste 15 Noroeste 0 945.2 0.1 32
2018-05-14 01:00:00 13.2 8 Norte 18 Norte 0 945.4 1.1 29
2018-05-11 20:00:00 21.3 8 Nordeste 17 Este 0 942.2 -0.4 60
2018-05-11 19:00:00 22.1 8 Nordeste 19 Este 0 942.1 -1.1 59
2018-05-11 18:00:00 23.1 10 Este 21 Nordeste 0 942.2 -1.7 56
2018-05-11 17:00:00 23.3 8 Este 16 Sudeste 0 942.6 -1.9 56
2018-05-11 16:00:00 22.7 7 Este 17 Este 0 943.2 -1.9 57
2018-05-11 15:00:00 21.7 8 Este 16 Este 0 943.9 -1.6 58
2018-05-11 14:00:00 20.6 6 Este 14 Este 0 944.5 -1 62
2018-05-11 13:00:00 18.2 5 Este 15 Sudeste 0 945.1 -0.2 70
2018-05-11 12:00:00 16.3 8 Este 14 Este 0 945.5 0.5 75
2018-05-11 11:00:00 15.5 6 Este 14 Este 0 945.5 0.8 77
2018-05-11 10:00:00 15.7 7 Este 12 Este 0 945.3 1.2 76
2018-05-11 09:00:00 13.9 3 Este 11 Oeste 0 945 1.3 82
2018-05-11 08:00:00 10.7 8 Oeste 16 Oeste 0 944.7 1.1 87
2018-05-11 07:00:00 10.3 12 Oeste 19 Oeste 0 944.1 0.3 89
2018-05-11 06:00:00 10.4 7 Oeste 12 Oeste 0.2 943.7 -0.1 92
2018-05-11 05:00:00 9.9 2 Noroeste 6 Noroeste 0 943.6 -0.3 90
2018-05-11 04:00:00 11.1 2 Norte 18 Oeste 0 943.8 0.4 88
2018-05-11 03:00:00 12.7 12 Oeste 21 Oeste 0 943.8 -0.4 87
2018-05-11 02:00:00 12.7 7 Oeste 17 Sudoeste 0 943.9 -0.7 88
2018-05-11 01:00:00 12.9 9 Sudoeste 14 Sudoeste 0 943.4 -1 90
2018-05-11 00:00:00 13.6 8 Oeste 12 Oeste 0 944.2 1.6 89
2018-05-10 23:00:00 14.4 5 Este 17 Nordeste 0 944.6 2.5 87
2018-05-10 22:00:00 14.5 12 Nordeste 25 Nordeste 0 944.4 2.4 87
2018-05-10 21:00:00 16.1 6 Sudoeste 13 Sur 0 942.6 0.5 76
2018-05-10 20:00:00 17.4 9 Sur 22 Oeste 0 942.1 0.1 69
2018-05-10 19:00:00 16 12 Oeste 27 Sudoeste 0 942 0.2 72
2018-05-10 18:00:00 15.9 9 Sudoeste 17 Sudoeste 0 942.1 0.8 84
2018-05-10 17:00:00 14.3 5 Oeste 17 Este 0.2 942 1.8 86
2018-05-10 16:00:00 14.3 5 Norte 34 Nordeste 2.2 941.8 1.2 87
2018-05-10 15:00:00 17.3 16 Nordeste 36 Norte 0 941.3 0.5 64
2018-05-10 14:00:00 24.7 13 Este 27 Este 0 940.2 -0.3 45
2018-05-10 13:00:00 23.6 8 Este 22 Este 0 940.6 0.4 49
2018-05-10 12:00:00 22.5 7 Este 17 Sudeste 0 940.8 0.9 53
2018-05-10 11:00:00 19.9 8 Sudeste 15 Este 0 940.5 1.5 57
2018-05-10 10:00:00 19.5 2 Nordeste 14 Sudoeste 0 940.2 2.2 59
2018-05-10 09:00:00 16.6 10 Oeste 18 Oeste 0 939.9 2.3 69
2018-05-10 08:00:00 15.3 7 Oeste 17 Sudoeste 0 939 1.8 71
2018-05-10 07:00:00 14.8 9 Oeste 18 Oeste 0 938 0.9 72
2018-05-10 06:00:00 14 4 Sudoeste 12 Sudoeste 0 937.6 0.3 79
2018-05-10 05:00:00 16 8 Sudoeste 14 Sudoeste 0 937.2 -0.4 69
2018-05-10 04:00:00 14.2 4 Este 10 Sur 0 937.1 -0.6 80
2018-05-10 03:00:00 15.3 6 Sur 12 Sur 0 937.3 -0.3 77
2018-05-10 02:00:00 15.7 7 Noroeste 21 Sudoeste 0 937.6 0.1 74
2018-05-10 01:00:00 15.7 4 Oeste 10 Sudoeste 0 937.7 0.8 75
2018-05-10 00:00:00 15.9 3 Sur 8 Oeste 0 937.6 0.9 77
2018-05-09 23:00:00 17.8 5 Este 10 Nordeste 0 937.5 1.4 69
2018-05-09 22:00:00 18.6 6 Sudeste 12 Este 0 936.9 0.9 63
2018-05-09 21:00:00 19.4 3 Sudeste 13 Sur 0 936.7 0.2 70
2018-05-09 20:00:00 20.6 9 Sudoeste 22 Sudoeste 0 936.1 0 61
2018-05-09 19:00:00 21.6 12 Sudoeste 28 Sur 0 936 0 59
2018-05-09 18:00:00 20.8 4 Sur 17 Sudoeste 0.4 936.5 0.2 63
2018-05-09 17:00:00 19.7 7 Sudoeste 27 Sur 1.8 936.1 -0.5 74
2018-05-09 16:00:00 24.4 16 Sur 33 Sur 0 936 -1.2 43
2018-05-09 15:00:00 20.9 13 Nordeste 28 Nordeste 0 936.3 -1.5 55
2018-05-09 14:00:00 24.7 6 Este 15 Sudeste 0 936.6 -1.4 36
2018-05-09 13:00:00 24.7 7 Este 15 Este 0 937.2 -1.1 38
2018-05-09 12:00:00 23.3 7 Este 13 Nordeste 0 937.8 -0.1 44
2018-05-09 11:00:00 21.5 3 Este 10 Sudeste 0 938 0.3 50
2018-05-09 10:00:00 19.2 4 Este 15 Oeste 0 938.3 1.3 56
2018-05-09 09:00:00 15.4 7 Oeste 22 Oeste 0 937.9 1 70
2018-05-09 08:00:00 12.4 9 Oeste 22 Oeste 0 937.7 0.1 76
2018-05-09 07:00:00 11.3 12 Oeste 22 Oeste 0 937 -1 81
2018-05-09 06:00:00 11.5 14 Oeste 23 Oeste 0 936.9 -1.5 80
2018-05-09 05:00:00 11.9 13 Oeste 18 Oeste 0 937.6 -0.7 80
2018-05-09 04:00:00 12.3 15 Oeste 21 Oeste 0 938 -0.8 80
2018-05-09 03:00:00 12 7 Oeste 15 Oeste 0 938.4 -0.3 84
2018-05-09 02:00:00 12.9 7 Sudoeste 16 Sudoeste 0 938.3 -0.1 83
2018-05-09 01:00:00 11.9 4 Oeste 7 Oeste 0 938.8 0.9 91
2018-05-09 00:00:00 12.3 3 Oeste 7 Oeste 0 938.7 0.6 89
2018-05-08 23:00:00 13.5 5 Oeste 12 Oeste 0 938.4 0.3 86
2018-05-08 22:00:00 14.9 11 Oeste 17 Oeste 0 937.9 -1 80
2018-05-08 21:00:00 15.4 9 Oeste 18 Oeste 0 938.1 0 81
2018-05-08 20:00:00 16.2 9 Oeste 14 Oeste 1 938.1 1.6 86
2018-05-08 19:00:00 16.2 5 Norte 29 Este 0.6 938.9 1.9 86
2018-05-08 18:00:00 17.1 16 Este 43 Nordeste 2.8 938.1 1.1 75
2018-05-08 17:00:00 24.4 8 Noroeste 23 Nordeste 0 936.5 -1 30
2018-05-08 16:00:00 24.8 11 Norte 30 Nordeste 0 937 -1.5 30
2018-05-08 15:00:00 26.2 13 Nordeste 29 Este 0 937 -2 27
2018-05-08 14:00:00 24.8 12 Nordeste 29 Nordeste 0 937.5 -1.7 29
2018-05-08 13:00:00 23.5 13 Este 24 Este 0 938.5 -0.8 34
2018-05-08 12:00:00 21.1 10 Este 18 Este 0 939 -0.4 42
2018-05-08 11:00:00 19.8 4 Este 10 Sur 0 939.2 -0.1 46
2018-05-08 10:00:00 17.4 4 Sudoeste 15 Oeste 0 939.3 0.1 52
2018-05-08 09:00:00 13.3 9 Oeste 16 Oeste 0 939.4 0.1 67
2018-05-08 08:00:00 11.8 5 Oeste 19 Sudoeste 0 939.3 -0.1 73
2018-05-08 07:00:00 10.2 9 Oeste 15 Oeste 0 939.2 -0.3 82
2018-05-08 06:00:00 9.5 7 Oeste 13 Sudoeste 0 939.3 -0.7 87
2018-05-08 05:00:00 9.8 0 Calma 11 Sudoeste 0 939.4 -1 86
2018-05-08 04:00:00 11.3 6 Oeste 15 Oeste 0 939.5 -1.2 79
2018-05-08 03:00:00 11.8 0 Calma 16 Oeste 0 940 -0.8 81
2018-05-08 02:00:00 13.6 8 Oeste 12 Oeste 0 940.4 0 77
2018-05-08 01:00:00 14.2 8 Oeste 12 Oeste 0 940.7 0.9 75
2018-05-08 00:00:00 15.1 7 Sudoeste 14 Sudoeste 0 940.8 1.5 70
2018-05-07 23:00:00 16 8 Sudoeste 18 Sudoeste 0 940.4 1.4 65
2018-05-07 22:00:00 17.5 13 Oeste 22 Oeste 0 939.8 1 57
2018-05-07 21:00:00 19.2 4 Sudoeste 17 Este 0 939.3 0.5 44
2018-05-07 20:00:00 21.4 8 Este 21 Este 0 939 -0.3 36
2018-05-07 19:00:00 22.7 9 Este 18 Sudeste 0 938.8 -1.2 32
2018-05-07 18:00:00 22.8 9 Este 19 Este 0 938.8 -2.2 30
2018-05-07 17:00:00 23.3 6 Sudeste 25 Este 0 939.3 -2.1 31
2018-05-07 16:00:00 23.3 10 Este 26 Este 0 940 -2 31
2018-05-07 15:00:00 21 8 Este 18 Este 0 941 -1.4 36
2018-05-07 14:00:00 21.5 9 Sudeste 24 Sudeste 0 941.4 -1.1 38
2018-05-07 13:00:00 22 9 Este 21 Este 0 942 -0.5 36
2018-05-07 12:00:00 20.6 11 Este 19 Este 0 942.4 0 42
2018-05-07 11:00:00 19.5 5 Este 14 Sudeste 0 942.5 0.4 50
2018-05-07 10:00:00 17.7 4 Sudeste 9 Este 0 942.5 0.6 58
2018-05-07 09:00:00 13.9 5 Sudoeste 12 Sudoeste 0 942.4 0.4 68
2018-05-07 08:00:00 10.1 5 Oeste 19 Sudoeste 0 942.1 0 82
2018-05-07 07:00:00 8.7 6 Sudoeste 14 Oeste 0 941.9 -0.6 87
2018-05-07 06:00:00 9.4 10 Oeste 15 Oeste 0 942 -0.9 87
2018-05-07 05:00:00 8.7 3 Noroeste 6 Sudoeste 0 942.1 -1.2 89
2018-05-07 04:00:00 9.2 2 Noroeste 8 Sudoeste 0 942.5 -1 85
2018-05-07 03:00:00 11 7 Oeste 12 Sudoeste 0 942.9 -0.5 77
2018-05-07 02:00:00 10.9 4 Oeste 12 Noroeste 0 943.3 0 80
2018-05-07 01:00:00 10.9 2 Nordeste 8 Noroeste 0 943.5 0.5 82
2018-05-07 00:00:00 12.4 6 Norte 9 Norte 0 943.4 1 76
2018-05-06 23:00:00 13.6 6 Norte 17 Nordeste 0 943.3 1.5 71
2018-05-06 22:00:00 15.5 8 Este 19 Este 0 943 1.6 62
2018-05-06 21:00:00 16.7 5 Este 24 Este 0 942.4 1.1 58
2018-05-06 20:00:00 18.3 15 Este 28 Este 0 941.8 0.3 50
2018-05-06 19:00:00 19.8 16 Este 30 Este 0 941.4 -0.6 45
2018-05-06 18:00:00 21.5 15 Sudeste 31 Sudeste 0 941.3 -1.3 38
2018-05-06 17:00:00 22.3 10 Este 26 Este 0 941.5 -1.5 32
2018-05-06 16:00:00 22.7 8 Este 26 Sudeste 0 942 -1.6 31
2018-05-06 15:00:00 22.5 10 Este 24 Nordeste 0 942.6 -1.3 35
2018-05-06 14:00:00 21.6 9 Este 22 Este 0 943 -0.9 40
2018-05-06 13:00:00 20.2 8 Nordeste 20 Este 0 943.6 -0.2 49
2018-05-06 12:00:00 18.2 8 Este 18 Nordeste 0 943.9 0.2 54
2018-05-06 11:00:00 17.5 10 Nordeste 25 Este 0 943.9 0.4 56
2018-05-06 10:00:00 16.1 13 Este 22 Este 0 943.8 0.6 62
2018-05-06 09:00:00 13.8 3 Sur 7 Sur 0 943.7 0.8 81
2018-05-06 08:00:00 9.9 2 Oeste 4 Noroeste 0 943.5 0.4 91
2018-05-06 07:00:00 9.7 2 Sudoeste 6 Noroeste 0 943.2 -0.2 91
2018-05-06 06:00:00 10.6 2 Oeste 7 Noroeste 0 942.9 -0.7 90
2018-05-06 05:00:00 11.8 6 Oeste 10 Oeste 0 943.1 -0.9 89
2018-05-06 04:00:00 12.3 2 Oeste 5 Sur 0 943.4 -0.5 92
2018-05-06 03:00:00 12.3 0 Calma 4 Noroeste 0 943.6 -0.5 92
2018-05-06 02:00:00 12.1 2 Oeste 7 Este 0 944 0.2 91
2018-05-06 01:00:00 12.1 4 Noroeste 10 Noroeste 0 943.9 0.6 90
2018-05-06 00:00:00 12.1 4 Noroeste 9 Noroeste 0 944.1 1.3 90
2018-05-05 23:00:00 12.8 2 Oeste 13 Oeste 0 943.8 2.1 89
2018-05-05 22:00:00 12.9 5 Oeste 17 Noroeste 0 943.3 2.4 88
2018-05-05 21:00:00 13.5 5 Noroeste 17 Norte 5 942.8 2.4 86
2018-05-05 20:00:00 16.3 6 Sudoeste 14 Sudoeste 0.6 941.7 1.4 73
2018-05-05 19:00:00 20 5 Sudoeste 20 Sudoeste 0 940.9 0.5 43
2018-05-05 18:00:00 22 6 Este 19 Este 0 940.4 -0.4 31
2018-05-05 17:00:00 23.8 5 Sudeste 23 Este 0 940.3 -0.9 28
2018-05-05 16:00:00 24.8 12 Sudeste 30 Este 0 940.4 -1.2 25
2018-05-05 15:00:00 23.8 12 Nordeste 27 Este 0 940.8 -1 26
2018-05-05 14:00:00 23.1 10 Este 27 Nordeste 0 941.2 -0.5 27
2018-05-05 13:00:00 23 10 Este 23 Sudeste 0 941.6 0 31
2018-05-05 12:00:00 21.7 11 Este 18 Este 0 941.8 0.2 32
2018-05-05 11:00:00 19.9 9 Este 16 Este 0 941.7 0.3 47
2018-05-05 10:00:00 18.4 5 Nordeste 9 Nordeste 0 941.6 0.5 49
2018-05-05 09:00:00 16.1 3 Sudeste 9 Sur 0 941.6 0.6 62
2018-05-05 08:00:00 12.7 0 Calma 3 Sur 0 941.4 0.3 73
2018-05-05 07:00:00 11.6 0 Calma 6 Sur 0 941.1 0.1 77
2018-05-05 06:00:00 12.1 3 Sudoeste 5 Sudoeste 0 941 -0.4 72
2018-05-05 05:00:00 12.6 3 Nordeste 9 Sudoeste 0 941.1 -0.7 68
2018-05-05 04:00:00 12.8 6 Sudoeste 12 Sudoeste 0 941 -0.9 71
2018-05-05 03:00:00 12.7 6 Oeste 14 Oeste 0 941.4 -0.8 66
2018-05-05 02:00:00 12.3 8 Oeste 12 Sudoeste 0 941.8 0.1 69
2018-05-05 01:00:00 12.8 2 Sudeste 8 Norte 0 941.9 1.4 64
2018-05-05 00:00:00 13 5 Norte 17 Este 0 942.2 2.5 60
2018-05-04 23:00:00 13.4 8 Nordeste 20 Este 0 941.7 2.7 57
2018-05-04 22:00:00 14.8 4 Este 10 Nordeste 0 940.5 2.1 52
2018-05-04 21:00:00 15.7 5 Noroeste 12 Sudeste 0 939.7 2 51
2018-05-04 20:00:00 17.4 7 Este 24 Este 0 939 1.4 43
2018-05-04 19:00:00 18.8 10 Sudeste 23 Sudeste 0 938.4 0.6 39
2018-05-04 18:00:00 20.2 10 Este 23 Este 0 937.7 -0.3 32
2018-05-04 17:00:00 20.8 9 Nordeste 21 Nordeste 0 937.6 -0.5 31
2018-05-04 16:00:00 23.2 10 Sudeste 25 Sudeste 0 937.8 -0.7 26
2018-05-04 15:00:00 22.5 6 Sur 19 Este 0 938 -0.4 26
2018-05-04 14:00:00 20.9 8 Este 22 Este 0 938.1 -0.2 28
2018-05-04 13:00:00 20 10 Este 23 Este 0 938.5 0.2 31
2018-05-04 12:00:00 18.3 12 Sudeste 24 Sudeste 0 938.4 0.3 35
2018-05-04 11:00:00 16.3 11 Nordeste 24 Nordeste 0 938.3 0.4 39
2018-05-04 10:00:00 15.2 9 Este 19 Este 0 938.3 0.9 42
2018-05-04 09:00:00 13.4 7 Sudeste 11 Sudeste 0 938.1 0.8 48
2018-05-04 08:00:00 9 0 Calma 8 Oeste 0 937.9 0.5 72
2018-05-04 07:00:00 8.3 6 Oeste 11 Sudoeste 0 937.4 0 67
2018-05-04 06:00:00 8 2 Oeste 13 Oeste 0 937.3 -0.1 73
2018-05-04 05:00:00 8.4 2 Noroeste 9 Oeste 0 937.4 -0.4 71
2018-05-04 04:00:00 11.1 8 Oeste 11 Oeste 0 937.4 -0.8 52
2018-05-04 03:00:00 10.8 4 Noroeste 9 Oeste 0 937.4 -0.5 54
2018-05-04 02:00:00 13.1 4 Sudoeste 15 Noroeste 0 937.8 -0.1 41
2018-05-04 01:00:00 13.4 3 Norte 11 Noroeste 0 938.2 0.9 44
2018-05-04 00:00:00 15.3 3 Oeste 15 Noroeste 0 937.9 1.3 38
2018-05-03 23:00:00 16.1 4 Norte 19 Noroeste 0 937.9 1.9 37
2018-05-03 22:00:00 17.3 5 Noroeste 14 Norte 0 937.3 1.6 35
2018-05-03 21:00:00 18.5 5 Noroeste 18 Noroeste 0 936.6 1.1 32
2018-05-03 20:00:00 19.8 8 Norte 30 Norte 0 936 -0.1 29
2018-05-03 19:00:00 21.1 9 Noroeste 31 Norte 0 935.7 -1 28
2018-05-03 18:00:00 21.1 15 Nordeste 27 Norte 0 935.5 -1.7 25
2018-05-03 17:00:00 19.5 5 Noroeste 28 Norte 0 936.1 -1.8 33
2018-05-03 16:00:00 20.4 12 Norte 28 Nordeste 0 936.7 -1.9 28
2018-05-03 15:00:00 21.2 5 Oeste 21 Oeste 0 937.2 -1.7 29
2018-05-03 14:00:00 20.4 11 Norte 31 Nordeste 0 937.9 -1.1 29
2018-05-03 13:00:00 20.4 9 Nordeste 31 Nordeste 0 938.6 -0.7 30
2018-05-03 12:00:00 19.7 10 Nordeste 35 Nordeste 0 938.9 -0.4 32
2018-05-03 11:00:00 17.8 10 Norte 23 Norte 0 939 -0.5 37
2018-05-03 10:00:00 18 8 Norte 30 Norte 0 939.3 0 38
2018-05-03 09:00:00 15.7 14 Norte 31 Norte 0 939.3 -0.2 44
2018-05-03 08:00:00 11 4 Sudeste 8 Sur 0 939.5 -0.1 56
2018-05-03 07:00:00 11.1 2 Este 14 Noroeste 0 939.3 -0.4 49
2018-05-03 06:00:00 12.6 6 Sur 18 Sudoeste 0 939.5 -0.4 39
2018-05-03 05:00:00 13.1 6 Noroeste 18 Oeste 0 939.6 -0.8 36
2018-05-03 04:00:00 13.7 6 Oeste 25 Oeste 0 939.7 -0.6 36
2018-05-03 03:00:00 13.6 8 Oeste 22 Oeste 0 939.9 -0.5 37
2018-05-03 02:00:00 13.7 8 Oeste 27 Noroeste 0 940.4 0.1 39
2018-05-03 01:00:00 13.9 9 Noroeste 30 Noroeste 0 940.3 0.4 39
2018-05-03 00:00:00 14.1 10 Noroeste 28 Noroeste 0 940.4 0.7 38
2018-05-02 23:00:00 14.5 10 Noroeste 28 Noroeste 0 940.3 1 36
2018-05-02 22:00:00 14.5 9 Noroeste 28 Oeste 0 939.9 0.6 38
2018-05-02 21:00:00 14.9 8 Noroeste 25 Noroeste 0 939.7 0.6 36
2018-05-02 20:00:00 16.4 10 Noroeste 31 Noroeste 0 939.3 0.2 31
2018-05-02 19:00:00 16.9 10 Noroeste 33 Norte 0 939.3 -0.1 30
2018-05-02 18:00:00 17.9 13 Noroeste 33 Norte 0 939.1 -0.7 27
2018-05-02 17:00:00 19 13 Noroeste 30 Norte 0 939.1 -1.2 26
2018-05-02 16:00:00 20 7 Norte 25 Norte 0 939.4 -1.5 23
2018-05-02 15:00:00 19.1 9 Norte 24 Noroeste 0 939.8 -1.3 25
2018-05-02 14:00:00 17.7 5 Noroeste 23 Sudoeste 0 940.3 -0.8 26
2018-05-02 13:00:00 18.6 6 Sudeste 17 Oeste 0 940.9 0 27
2018-05-02 12:00:00 17 4 Nordeste 26 Noroeste 0 941.1 0.1 27
2018-05-02 11:00:00 15.3 9 Noroeste 28 Noroeste 0 941.1 0.5 36
2018-05-02 10:00:00 13.3 13 Noroeste 30 Noroeste 0 940.9 0.5 44
2018-05-02 09:00:00 10.5 8 Sudoeste 20 Sudoeste 0 941 1.1 53
2018-05-02 08:00:00 6 5 Sur 22 Sudeste 0 940.6 0.7 70
2018-05-02 07:00:00 5.7 7 Sudoeste 23 Sudoeste 0 940.4 0.5 65
2018-05-02 06:00:00 6.3 8 Sudoeste 22 Sudoeste 0 939.9 -0.5 62
2018-05-02 05:00:00 4.7 4 Sudeste 10 Sur 0 939.9 -0.7 73
2018-05-02 04:00:00 5.4 8 Sur 15 Sudoeste 0 939.9 -0.7 70
2018-05-02 03:00:00 5.9 5 Sudoeste 22 Oeste 0 940.4 -0.1 68
2018-05-02 02:00:00 6.6 14 Oeste 22 Oeste 0 940.6 0.2 66
2018-05-02 01:00:00 6.1 10 Oeste 18 Oeste 0 940.6 1.3 73
2018-05-02 00:00:00 6.7 6 Oeste 12 Oeste 0 940.5 1.5 75
2018-05-01 23:00:00 6.9 5 Noroeste 15 Nordeste 0 940.4 1.8 79
2018-05-01 22:00:00 8.5 4 Sudoeste 19 Oeste 0 939.3 1 70
2018-05-01 21:00:00 9.3 10 Oeste 21 Oeste 0 939 -0.2 70
2018-05-01 20:00:00 11.2 12 Sudoeste 21 Sudoeste 0 938.6 -0.6 59
2018-05-01 19:00:00 11.3 3 Sudoeste 23 Oeste 0 938.3 -0.3 69
2018-05-01 18:00:00 8.6 9 Noroeste 20 Oeste 0.8 939.2 -0.5 79
2018-05-01 17:00:00 9.6 14 Norte 42 Norte 0 939.2 0.4 58
2018-05-01 16:00:00 9.8 7 Noroeste 16 Noroeste 1.2 938.6 -0.6 78
2018-05-01 15:00:00 -- 10 Noroeste 29 Noroeste 4.8 939.7 0.3 73
2018-05-01 14:00:00 13.8 11 Nordeste 27 Este 0 938.8 -0.7 36
2018-05-01 13:00:00 15.1 13 Este 27 Este 0 939.2 -0.5 32
2018-05-01 12:00:00 14 11 Nordeste 25 Nordeste 0 939.4 -0.6 34
2018-05-01 11:00:00 14.2 6 Norte 18 Norte 0 939.5 -0.1 38
2018-05-01 10:00:00 10.3 8 Noroeste 17 Noroeste 0 939.7 0.3 48
2018-05-01 09:00:00 8.7 9 Sudoeste 18 Oeste 0 940 0.7 59
2018-05-01 08:00:00 5.5 12 Sudoeste 17 Sudoeste 0 939.6 0.2 69
2018-05-01 07:00:00 5 4 Noroeste 12 Oeste 0 939.4 -0.2 72
2018-05-01 06:00:00 4.2 6 Noroeste 12 Oeste 0 939.3 -0.6 76
2018-05-01 05:00:00 3.6 4 Noroeste 14 Oeste 0 939.4 -0.9 80
2018-05-01 04:00:00 4.8 7 Oeste 12 Oeste 0 939.6 -0.9 74
2018-05-01 03:00:00 6 8 Oeste 14 Oeste 0 939.9 -0.5 68
2018-05-01 02:00:00 5.9 3 Noroeste 12 Oeste 0 940.3 0.3 72
2018-05-01 01:00:00 7.2 4 Oeste 12 Oeste 0 940.5 1.1 65
2018-05-01 00:00:00 8.9 2 Este 10 Oeste 0 940.4 1.4 57
2018-04-30 23:00:00 9.9 2 Norte 10 Oeste 0 940 1 55
2018-04-30 22:00:00 10 5 Oeste 9 Oeste 0 939.4 0.7 59
2018-04-30 21:00:00 10.6 3 Oeste 16 Sur 0.2 939 0.9 61
2018-04-30 20:00:00 11.3 6 Sudoeste 26 Sudoeste 0 939 1 52
2018-04-30 19:00:00 11.7 10 Noroeste 23 Noroeste 0 938.7 0.5 54
2018-04-30 18:00:00 13.7 9 Norte 25 Norte 0 938.1 -0.6 43
2018-04-30 17:00:00 14.3 13 Norte 27 Nordeste 0 938 -0.9 42
2018-04-30 16:00:00 17.3 11 Nordeste 33 Este 0 938.2 -1.3 31
2018-04-30 15:00:00 16.1 14 Nordeste 29 Nordeste 0 938.7 -1.2 33
2018-04-30 14:00:00 16.9 10 Nordeste 24 Nordeste 0 938.9 -1.4 34
2018-04-30 13:00:00 16.3 8 Nordeste 21 Sur 0 939.5 -1 33
2018-04-30 12:00:00 14.9 7 Este 18 Este 0 939.9 -0.8 37
2018-04-30 11:00:00 13.6 4 Este 10 Este 0 940.3 -0.2 46
2018-04-30 10:00:00 11.8 5 Sudoeste 18 Oeste 0 940.5 0.3 49
2018-04-30 09:00:00 7.6 10 Sudoeste 21 Oeste 0 940.7 0.5 66
2018-04-30 08:00:00 6.8 11 Oeste 17 Oeste 0 940.5 0 68
2018-04-30 07:00:00 5.9 9 Oeste 13 Oeste 0 940.2 -0.5 72
2018-04-30 06:00:00 4.8 5 Oeste 8 Oeste 0 940.2 -0.8 78
2018-04-30 05:00:00 7.1 3 Este 15 Oeste 0 940.5 -1 66
2018-04-30 04:00:00 7.6 10 Oeste 16 Oeste 0 940.7 -0.8 61
2018-04-30 03:00:00 6.3 6 Noroeste 13 Noroeste 0 941 -0.2 68
2018-04-30 02:00:00 7.1 8 Oeste 12 Oeste 0 941.5 0.4 63
2018-04-30 01:00:00 8.2 5 Oeste 12 Oeste 0 941.5 1 56
2018-04-30 00:00:00 8.8 9 Oeste 14 Oeste 0 941.2 1.5 53
2018-04-29 23:00:00 9.5 6 Sudoeste 11 Oeste 0 941.1 2 51
2018-04-29 22:00:00 11.1 8 Sur 18 Sudoeste 0 940.5 1.7 43
2018-04-29 21:00:00 13.1 14 Sudoeste 30 Sudoeste 0 939.7 1.3 35
2018-04-29 20:00:00 14.6 19 Oeste 38 Oeste 0 939.1 1.1 29
2018-04-29 19:00:00 15.8 18 Sudoeste 40 Sudoeste 0 938.8 0.8 25
2018-04-29 18:00:00 16 12 Noroeste 51 Sudoeste 0 938.4 0.6 26
2018-04-29 17:00:00 16.4 21 Sudoeste 49 Sudoeste 0 938 0 26
2018-04-29 16:00:00 17.6 14 Oeste 41 Sudoeste 0 938 0.3 24
2018-04-29 15:00:00 16.4 26 Oeste 57 Sudoeste 0 937.8 0.3 25
2018-04-29 14:00:00 15.2 31 Oeste 62 Sudoeste 0 938 1.4 26
2018-04-29 13:00:00 15.3 24 Oeste 55 Sudoeste 0 937.7 1.5 27
2018-04-29 12:00:00 14.1 30 Sudoeste 56 Sudoeste 0 937.5 1.4 29
2018-04-29 11:00:00 12.8 36 Sudoeste 58 Sudoeste 0 936.6 1.1 33
2018-04-29 10:00:00 12.3 26 Oeste 42 Sudoeste 0 936.2 1.2 39
2018-04-29 09:00:00 10.9 22 Sudoeste 42 Sudoeste 0 936.1 1.8 46
2018-04-29 08:00:00 9 13 Oeste 24 Oeste 0 935.5 1.4 61
2018-04-29 07:00:00 9.1 12 Oeste 31 Oeste 0 935 1.3 57
2018-04-29 06:00:00 9.2 13 Oeste 28 Sudoeste 0 934.3 0.6 57
2018-04-29 05:00:00 10.6 19 Sudoeste 33 Sudoeste 0 934.1 -0.2 50
2018-04-29 04:00:00 10.6 16 Sudoeste 31 Sudoeste 0 933.7 -0.4 58
2018-04-29 03:00:00 12 11 Sudoeste 24 Oeste 0 933.7 -0.3 54
2018-04-29 02:00:00 13.3 10 Sudoeste 19 Sudoeste 0 934.3 0.8 52
2018-04-29 01:00:00 12.5 6 Oeste 12 Oeste 0 934.1 1 52
2018-04-29 00:00:00 13.9 6 Sudoeste 11 Oeste 0 934 1.5 46
2018-04-28 23:00:00 16.5 6 Sudoeste 22 Oeste 0 933.5 1.2 35
2018-04-28 22:00:00 18.7 10 Sudoeste 24 Oeste 0 933.1 0.6 27
2018-04-28 21:00:00 20.3 7 Sudoeste 23 Oeste 0 932.5 -0.4 26
2018-04-28 20:00:00 22.8 16 Sudoeste 32 Oeste 0 932.3 -1.2 23
2018-04-28 19:00:00 22.7 14 Sur 26 Sur 0 932.5 -1.8 26
2018-04-28 18:00:00 23.7 8 Sur 22 Sur 0 932.9 -2.2 30
2018-04-28 17:00:00 24.7 9 Sur 22 Sudeste 0 933.5 -2.5 32
2018-04-28 16:00:00 25 11 Sudeste 30 Sudoeste 0 934.3 -2.5 31
2018-04-28 15:00:00 26.3 13 Sudoeste 39 Sudoeste 0 935.1 -2.1 16
2018-04-28 14:00:00 24.6 18 Oeste 39 Sudoeste 0 936 -1.5 15
2018-04-28 13:00:00 24.4 11 Sur 32 Oeste 0 936.8 -1 37
2018-04-28 12:00:00 23.2 8 Sur 25 Oeste 0 937.2 -0.7 40
2018-04-28 11:00:00 20.2 12 Sudoeste 19 Sudoeste 0 937.5 -0.3 51
2018-04-28 10:00:00 19 4 Este 14 Sur 0 937.8 0.2 58
2018-04-28 09:00:00 14 2 Norte 10 Sudoeste 0 937.9 0.3 74
2018-04-28 08:00:00 9.1 3 Sur 13 Oeste 0 937.8 0 88
2018-04-28 07:00:00 10.1 8 Oeste 15 Oeste 0 937.6 -0.3 82
2018-04-28 06:00:00 10.9 7 Oeste 22 Oeste 0 937.6 -0.7 78
2018-04-28 05:00:00 11.3 9 Oeste 19 Oeste 0 937.8 -1 78
2018-04-28 04:00:00 12 15 Oeste 24 Oeste 0 937.9 -1.3 77
2018-04-28 03:00:00 12.4 13 Oeste 19 Sudoeste 0 938.3 -1 79
2018-04-28 02:00:00 12.8 14 Oeste 23 Oeste 0 938.8 -1 80
2018-04-28 01:00:00 14.2 18 Oeste 24 Oeste 0 939.2 -0.3 77
2018-04-28 00:00:00 13.9 7 Oeste 20 Sudoeste 0 939.3 0.4 81
2018-04-27 23:00:00 14.1 9 Oeste 14 Oeste 0 939.8 1 85
2018-04-27 22:00:00 14.8 6 Sudoeste 13 Oeste 0 939.5 0.7 85
2018-04-27 21:00:00 16.8 8 Sudoeste 21 Sudoeste 0.2 938.9 0.8 75
2018-04-27 20:00:00 18.3 11 Oeste 20 Oeste 0.6 938.8 0.5 62
2018-04-27 19:00:00 19.8 14 Sudoeste 26 Sudoeste 0.2 938.8 0 57
2018-04-27 18:00:00 22.6 8 Sudoeste 27 Oeste 0 938.1 -1.3 43
2018-04-27 17:00:00 22.7 3 Este 9 Sudeste 0 938.3 -0.9 44
2018-04-27 16:00:00 18.6 0 Calma 22 Noroeste 0.2 938.8 -0.8 72
2018-04-27 15:00:00 18.5 12 Oeste 24 Sudoeste 0.4 939.4 -0.6 64
2018-04-27 14:00:00 17.6 8 Noroeste 49 Oeste 2.4 939.2 -1 74
2018-04-27 13:00:00 25.6 8 Nordeste 18 Sudeste 0 939.6 -0.6 35
2018-04-27 12:00:00 25.1 9 Este 17 Este 0 940 -0.4 37
2018-04-27 11:00:00 23.7 7 Sur 14 Este 0 940.2 0 42
2018-04-27 10:00:00 20.9 6 Sur 13 Oeste 0 940.2 0.2 52
2018-04-27 09:00:00 16 7 Oeste 23 Sudoeste 0 940.4 0.3 65
2018-04-27 08:00:00 13.5 16 Sudoeste 25 Sudoeste 0 940.2 -0.2 71
2018-04-27 07:00:00 13 13 Oeste 24 Sudoeste 0 940 -1.1 71
2018-04-27 06:00:00 12.8 13 Oeste 19 Oeste 0 940.1 -1.3 70
2018-04-27 05:00:00 13.1 9 Oeste 13 Oeste 0 940.4 -1.8 68
2018-04-27 04:00:00 12.1 3 Noroeste 15 Oeste 0 941.1 -1.7 76
2018-04-27 03:00:00 12.5 4 Este 16 Oeste 0 941.4 -1.9 74
2018-04-27 02:00:00 13.2 11 Sudoeste 19 Sudoeste 0 942.2 -1.2 71
2018-04-27 01:00:00 13.8 12 Sudoeste 24 Oeste 0 942.8 -0.2 71
2018-04-27 00:00:00 14.4 10 Sudoeste 22 Sudoeste 0 943.3 0.8 71
2018-04-26 23:00:00 15.3 9 Sudoeste 19 Sudoeste 0 943.4 1.1 70
2018-04-26 22:00:00 16.5 10 Oeste 19 Oeste 0 943 0.7 65
2018-04-26 21:00:00 18 9 Oeste 14 Oeste 0 942.5 0.3 58
2018-04-26 20:00:00 20.1 7 Sur 14 Este 0 942.3 0.2 50
2018-04-26 19:00:00 20.9 6 Este 21 Este 0 942.3 0 41
2018-04-26 18:00:00 21.5 12 Este 25 Este 0 942.2 -0.6 40
2018-04-26 17:00:00 22.4 11 Este 21 Este 0 942.1 -0.9 35
2018-04-26 16:00:00 23.2 8 Sudeste 24 Este 0 942.3 -1 34
2018-04-26 15:00:00 21.7 6 Sudeste 25 Sudeste 0 942.8 -1 39
2018-04-26 14:00:00 21 8 Nordeste 24 Nordeste 0 943 -0.7 40
2018-04-26 13:00:00 20.8 15 Nordeste 27 Este 0 943.3 -0.5 40
2018-04-26 12:00:00 19.2 12 Nordeste 26 Nordeste 0 943.8 0.8 44
2018-04-26 11:00:00 17.3 8 Nordeste 25 Nordeste 0 943.7 1.4 48
2018-04-26 10:00:00 15 8 Nordeste 28 Nordeste 0 943.8 1.7 54
2018-04-26 09:00:00 14.5 6 Nordeste 20 Norte 0 943 1.1 59
2018-04-26 08:00:00 12.3 3 Noroeste 8 Sur 0.2 942.3 0.2 90
2018-04-26 07:00:00 12.8 3 Oeste 7 Sudoeste 0.2 942.1 -0.1 88
2018-04-26 06:00:00 13.5 5 Sur 12 Oeste 0 941.9 -0.7 78
2018-04-26 05:00:00 13.6 0 Calma 6 Sur 0 942.1 -1 78
2018-04-26 04:00:00 14.7 4 Sur 12 Nordeste 0 942.2 -1.5 66
2018-04-26 03:00:00 14.7 3 Oeste 6 Sur 0 942.6 -1.1 67
2018-04-26 02:00:00 15.2 3 Sur 17 Norte 0 943.1 -0.5 64
2018-04-26 01:00:00 15.6 7 Norte 22 Norte 0 943.7 0.8 63
2018-04-26 00:00:00 15.7 6 Norte 18 Norte 0 943.7 1.6 65
2018-04-25 23:00:00 16 5 Nordeste 12 Nordeste 0 943.6 2.3 63
2018-04-25 22:00:00 16.4 6 Nordeste 13 Nordeste 0 942.9 1.8 60
2018-04-25 21:00:00 17 9 Este 19 Nordeste 0 942.1 1.1 57
2018-04-25 20:00:00 18.7 8 Nordeste 15 Nordeste 0 941.3 0 48
2018-04-25 19:00:00 19.1 5 Este 18 Este 0 941.1 -0.8 46
2018-04-25 18:00:00 20.2 10 Este 19 Nordeste 0 941 -1.1 42
2018-04-25 17:00:00 20.1 10 Nordeste 25 Este 0 941.3 -1.4 38
2018-04-25 16:00:00 21.3 12 Este 24 Nordeste 0 941.9 -1.3 35
2018-04-25 15:00:00 20.8 12 Nordeste 25 Nordeste 0 942.1 -1.3 35
2018-04-25 14:00:00 19.7 7 Este 21 Este 0 942.7 -0.1 39
2018-04-25 13:00:00 19.6 9 Este 23 Este 0 943.2 1.2 38
2018-04-25 12:00:00 18.4 12 Nordeste 26 Este 0 943.4 1 40
2018-04-25 11:00:00 17.8 8 Este 25 Nordeste 0 942.8 0.4 43
2018-04-25 10:00:00 17.4 7 Sudoeste 12 Sur 0 942 0.5 46
2018-04-25 09:00:00 13.9 0 Calma 7 Noroeste 0 942.4 0.4 64
2018-04-25 08:00:00 12.1 0 Calma 9 Noroeste 0 942.4 0.8 66
2018-04-25 07:00:00 11.9 4 Oeste 12 Oeste 0 941.5 0.2 68
2018-04-25 06:00:00 12.6 6 Sudoeste 10 Oeste 0 942 -0.4 64
2018-04-25 05:00:00 12.5 4 Oeste 10 Noroeste 0 941.6 -2.2 65
2018-04-25 04:00:00 13.5 4 Oeste 13 Sudoeste 0 941.3 -2.4 60
2018-04-25 03:00:00 13 6 Sudoeste 10 Sudoeste 0 942.4 -1.1 63
2018-04-25 02:00:00 13.3 3 Noroeste 10 Sudeste 0 943.8 0.6 64
2018-04-25 01:00:00 13.9 6 Sudeste 10 Sudeste 0 943.7 1.2 60
2018-04-25 00:00:00 13.7 0 Calma 9 Norte 0 943.5 1.2 60
2018-04-24 23:00:00 14.5 4 Noroeste 9 Noroeste 0 943.2 0.9 56
2018-04-24 22:00:00 14.9 5 Norte 10 Este 0 942.5 0.2 56
2018-04-24 21:00:00 17.4 7 Sudeste 14 Este 0 942.3 0.4 48
2018-04-24 20:00:00 19.4 9 Este 26 Este 0 942.3 0.6 39
2018-04-24 19:00:00 21.2 16 Este 32 Este 0 942.3 0.3 33
2018-04-24 18:00:00 22.7 16 Este 30 Este 0 941.9 -0.6 32
2018-04-24 17:00:00 24.7 14 Este 29 Este 0 941.7 -1.2 30
2018-04-24 16:00:00 25.8 16 Este 33 Este 0 942 -1.4 27
2018-04-24 15:00:00 25.8 17 Este 37 Este 0 942.5 -1.1 23
2018-04-24 14:00:00 24.4 14 Este 31 Este 0 942.9 -0.7 24
2018-04-24 13:00:00 24.3 11 Este 26 Este 0 943.4 0.3 24
2018-04-24 12:00:00 22.3 10 Este 22 Sudeste 0 943.6 0.9 28
2018-04-24 11:00:00 20.8 8 Este 17 Nordeste 0 943.6 1.6 30
2018-04-24 10:00:00 17.5 4 Sudeste 9 Sudeste 0 943.1 1.6 40
2018-04-24 09:00:00 14 4 Noroeste 8 Oeste 0 942.7 1.1 57
2018-04-24 08:00:00 12.9 2 Sudoeste 12 Sudeste 0 942 -0.2 53
2018-04-24 07:00:00 14.8 9 Este 19 Nordeste 0 941.5 -0.9 42
2018-04-24 06:00:00 16.3 9 Nordeste 20 Nordeste 0 941.6 -1.4 35
2018-04-24 05:00:00 16.2 9 Nordeste 24 Nordeste 0 942.2 -2.1 37
2018-04-24 04:00:00 16 10 Nordeste 26 Norte 0 942.4 -1.9 41
2018-04-24 03:00:00 16 9 Norte 18 Nordeste 0 943 0 40
2018-04-24 02:00:00 15.5 5 Oeste 10 Oeste 0 944.3 1.1 46
2018-04-24 01:00:00 16.7 8 Este 24 Nordeste 0 944.3 0.3 40
2018-04-24 00:00:00 17.1 12 Nordeste 33 Nordeste 0 943 0.5 40
2018-04-23 23:00:00 17.8 6 Nordeste 18 Nordeste 0 943.2 1.3 42
2018-04-23 22:00:00 17.2 4 Noroeste 12 Nordeste 0 944 3.1 46
2018-04-23 21:00:00 18.6 6 Nordeste 23 Este 0 942.5 0.4 41
2018-04-23 20:00:00 20.5 10 Este 33 Este 0 941.9 -0.5 41
2018-04-23 19:00:00 23 20 Este 32 Nordeste 0 940.9 -2.1 29
2018-04-23 18:00:00 24.4 10 Nordeste 25 Nordeste 0 942.1 -1.4 24
2018-04-23 17:00:00 25 12 Nordeste 30 Este 0 942.4 -1.7 24
2018-04-23 16:00:00 24.5 12 Nordeste 28 Este 0 943 -1.8 23
2018-04-23 15:00:00 24.4 15 Este 33 Este 0 943.5 -1.5 22
2018-04-23 14:00:00 23.1 14 Este 25 Este 0 944.1 -1.3 22
2018-04-23 13:00:00 21.6 10 Este 20 Este 0 944.8 0.7 23
2018-04-23 12:00:00 21.7 11 Este 21 Sudeste 0 945 0.9 28
2018-04-23 11:00:00 19.5 5 Sur 26 Nordeste 0 945.4 1.7 37
2018-04-23 10:00:00 16.6 8 Este 15 Este 0 944.1 0.8 47
2018-04-23 09:00:00 13 2 Sur 7 Sur 0 944.1 1.5 64
2018-04-23 08:00:00 10.1 4 Oeste 13 Sudoeste 0 943.7 -0.4 74
2018-04-23 07:00:00 10.3 3 Noroeste 8 Sur 0 943.3 -0.2 74
2018-04-23 06:00:00 12.6 7 Este 19 Nordeste 0.2 942.6 -1.4 63
2018-04-23 05:00:00 13.1 6 Sudoeste 11 Sur 0 944.1 -0.2 57
2018-04-23 04:00:00 13.2 3 Nordeste 24 Sudoeste 0 943.5 -0.7 56
2018-04-23 03:00:00 13.3 6 Sudeste 13 Nordeste 0 944 -0.7 56
2018-04-23 02:00:00 13.5 5 Noroeste 12 Nordeste 0 944.3 0.3 53
2018-04-23 01:00:00 13.8 5 Norte 13 Nordeste 0 944.2 0.5 57
2018-04-23 00:00:00 14.7 5 Nordeste 15 Nordeste 0 944.7 2 51
2018-04-22 23:00:00 14.8 5 Nordeste 10 Norte 0 944 1.7 56
2018-04-22 22:00:00 16.3 4 Norte 12 Nordeste 0 943.7 1.5 47
2018-04-22 21:00:00 17.8 8 Nordeste 15 Este 0 942.7 0.7 40
2018-04-22 20:00:00 19.1 11 Este 23 Este 0 942.3 0.7 33
2018-04-22 19:00:00 20.7 13 Este 25 Este 0 942.2 0.2 31
2018-04-22 18:00:00 21.8 13 Este 26 Nordeste 0 942 -0.6 31
2018-04-22 17:00:00 22.1 12 Este 32 Este 0 941.6 -1.2 30
2018-04-22 16:00:00 23.9 14 Este 35 Nordeste 0 942 -1.4 28
2018-04-22 15:00:00 22.8 14 Este 28 Este 0 942.6 -1.1 31
2018-04-22 14:00:00 23.1 11 Este 24 Este 0 942.8 -0.9 31
2018-04-22 13:00:00 21 10 Este 21 Nordeste 0 943.4 -0.3 36
2018-04-22 12:00:00 19.4 8 Este 21 Este 0 943.7 0.1 44
2018-04-22 11:00:00 17.6 9 Nordeste 19 Nordeste 0 943.7 0.4 51
2018-04-22 10:00:00 16.6 5 Este 10 Este 0 943.7 0.7 55
2018-04-22 09:00:00 12.9 3 Este 6 Oeste 0 943.6 0.1 77
2018-04-22 08:00:00 9.5 4 Noroeste 12 Noroeste 0 943.3 -0.5 84
2018-04-22 07:00:00 10.9 7 Noroeste 12 Noroeste 0 943 -1.4 77
2018-04-22 06:00:00 10.3 5 Noroeste 9 Noroeste 0 943.5 -1.8 85
2018-04-22 05:00:00 11.5 4 Oeste 15 Norte 0 943.8 -1.8 81
2018-04-22 04:00:00 11.2 4 Noroeste 6 Norte 0 944.4 -1.1 77
2018-04-22 03:00:00 11.5 2 Noroeste 6 Noroeste 0 945.3 -0.4 75
2018-04-22 02:00:00 11.1 4 Noroeste 5 Noroeste 0 945.6 0 78
2018-04-22 01:00:00 11.4 3 Nordeste 7 Nordeste 0 945.5 0.4 74
2018-04-22 00:00:00 11.5 4 Noroeste 10 Este 0 945.7 1.2 73